Time;durP1;ratioP1;P1;durP2;ratioP2;P2;SDS_P1;SDS_P2;PMS_P1;PMS_P2;Temp;Humidity;BMP_temperature;BMP_pressure;BME280_temperature;BME280_humidity;BME280_pressure;Samples;Min_cycle;Max_cycle;Signal;HPM_P1;HPM_P2
2022/05/03 00:02:15;;;;;;;11.18;8.98;;;;;;;10.93;nan;99258.41;5020551;28;20483;-78
2022/05/03 00:04:49;;;;;;;9.40;8.50;;;;;;;10.94;nan;99262.75;5019848;28;20272;-78
2022/05/03 00:07:37;;;;;;;9.43;8.43;;;;;;;10.95;nan;99257.38;5010352;28;20214;-77
2022/05/03 00:10:09;;;;;;;8.30;7.43;;;;;;;10.97;nan;99250.22;5004087;28;20321;-77
2022/05/03 00:12:41;;;;;;;7.88;7.10;;;;;;;11.00;nan;99249.16;5009871;28;20218;-78
2022/05/03 00:15:07;;;;;;;9.10;8.23;;;;;;;10.99;nan;99247.47;5010391;28;20289;-78
2022/05/03 00:17:34;;;;;;;8.55;7.85;;;;;;;11.01;nan;99245.56;5011005;28;20269;-79
2022/05/03 00:20:00;;;;;;;9.00;8.18;;;;;;;11.03;nan;99244.53;5010399;28;20237;-78
2022/05/03 00:22:26;;;;;;;7.80;7.10;;;;;;;11.05;nan;99257.56;5009574;28;20214;-79
2022/05/03 00:24:54;;;;;;;9.03;8.20;;;;;;;11.06;nan;99246.09;5010486;28;20230;-79
2022/05/03 00:27:25;;;;;;;9.40;8.45;;;;;;;11.10;nan;99246.69;5008557;28;20214;-78
2022/05/03 00:29:52;;;;;;;9.95;8.93;;;;;;;11.12;nan;99243.00;5009669;28;20293;-78
2022/05/03 00:32:20;;;;;;;9.30;7.50;;;;;;;11.14;nan;99240.28;5009796;28;20214;-78
2022/05/03 00:34:45;;;;;;;8.55;7.53;;;;;;;11.13;nan;99252.59;4960899;28;20253;-78
2022/05/03 00:37:10;;;;;;;9.57;8.30;;;;;;;11.11;nan;99243.97;4971647;28;21051;-78
2022/05/03 00:39:36;;;;;;;9.27;8.37;;;;;;;11.08;nan;99249.47;4970831;28;20223;-78
2022/05/03 00:42:08;;;;;;;11.77;7.87;;;;;;;11.07;nan;99239.88;4970627;28;20212;-78
2022/05/03 00:44:55;;;;;;;9.65;8.77;;;;;;;11.05;nan;99241.78;4970098;28;20232;-78
2022/05/03 00:47:33;;;;;;;8.60;7.78;;;;;;;11.04;nan;99247.97;4971609;28;20298;-78
2022/05/03 00:50:29;;;;;;;7.40;6.80;;;;;;;11.05;nan;99241.78;4971320;28;20343;-77
2022/05/03 00:53:06;;;;;;;7.68;7.07;;;;;;;10.97;nan;99244.13;4958496;28;20336;-78
2022/05/03 00:56:09;;;;;;;7.88;7.18;;;;;;;10.99;nan;99244.84;4970861;28;20686;-78
2022/05/03 00:59:13;;;;;;;7.55;6.63;;;;;;;10.93;nan;99248.75;4985368;28;20445;-78
2022/05/03 01:01:57;;;;;;;7.47;6.88;;;;;;;10.87;nan;99236.03;4972126;28;20661;-77
2022/05/03 01:04:36;;;;;;;7.82;7.13;;;;;;;10.88;nan;99244.75;4973418;28;20212;-78
2022/05/03 01:07:23;;;;;;;11.05;9.80;;;;;;;10.85;nan;99244.06;4982075;28;20207;-78
2022/05/03 01:09:54;;;;;;;11.73;8.43;;;;;;;10.80;nan;99245.28;4974269;28;20334;-78
2022/05/03 01:12:56;;;;;;;10.60;9.60;;;;;;;10.68;nan;99252.25;4975093;28;20239;-77
2022/05/03 01:15:44;;;;;;;9.43;8.40;;;;;;;10.60;nan;99251.97;4974147;28;20688;-78
2022/05/03 01:18:50;;;;;;;9.35;8.55;;;;;;;10.62;nan;99247.44;4974044;28;20243;-77
2022/05/03 01:21:42;;;;;;;9.18;8.32;;;;;;;10.63;nan;99249.13;4932977;29;20214;-78
2022/05/03 01:24:25;;;;;;;9.27;8.38;;;;;;;10.58;nan;99249.41;4969415;28;20684;-78
2022/05/03 01:27:00;;;;;;;10.27;9.20;;;;;;;10.55;nan;99249.63;4968411;28;20212;-78
2022/05/03 01:29:33;;;;;;;11.35;9.88;;;;;;;10.55;nan;99246.19;4968742;28;20314;-77
2022/05/03 01:32:01;;;;;;;9.95;9.02;;;;;;;10.53;nan;99245.44;4972072;28;20212;-78
2022/05/03 01:34:28;;;;;;;9.32;8.38;;;;;;;10.50;nan;99248.28;4971249;28;20215;-78
2022/05/03 01:36:59;;;;;;;10.00;9.05;;;;;;;10.49;nan;99244.00;4972155;28;20224;-78
2022/05/03 01:40:02;;;;;;;8.98;8.10;;;;;;;10.40;nan;99245.47;4973688;28;20244;-78
2022/05/03 01:42:48;;;;;;;10.10;9.10;;;;;;;10.36;nan;99244.81;4973521;28;20762;-78
2022/05/03 01:45:29;;;;;;;8.98;8.18;;;;;;;10.33;nan;99241.56;4973845;28;20231;-78
2022/05/03 01:50:18;;;;;;;8.43;7.22;;;;;;;10.26;nan;99251.63;4973429;28;20220;-78
2022/05/03 01:51:24;;;;;;;9.18;8.15;;;;;;;10.17;nan;99254.88;4998568;28;20212;-77
2022/05/03 01:54:02;;;;;;;10.43;9.35;;;;;;;10.10;nan;99261.47;4983588;28;20208;-78
2022/05/03 01:57:00;;;;;;;10.52;8.70;;;;;;;10.03;nan;99254.97;4981245;28;20216;-79
2022/05/03 01:59:49;;;;;;;14.48;9.57;;;;;;;9.95;nan;99255.47;4973342;28;20236;-79
2022/05/03 02:02:42;;;;;;;8.90;7.68;;;;;;;9.91;nan;99253.97;4970629;28;20339;-79
2022/05/03 02:05:15;;;;;;;9.40;8.45;;;;;;;9.87;nan;99255.97;4973310;28;20271;-79
2022/05/03 02:07:53;;;;;;;9.02;8.10;;;;;;;9.86;nan;99262.19;4972314;28;20248;-78
2022/05/03 02:10:25;;;;;;;9.18;8.15;;;;;;;9.85;nan;99267.50;4975538;28;20387;-79
2022/05/03 02:12:57;;;;;;;10.98;9.23;;;;;;;9.84;nan;99256.19;4971400;28;20620;-78
2022/05/03 02:15:43;;;;;;;10.23;7.57;;;;;;;9.83;nan;99256.28;4988836;28;20224;-79
2022/05/03 02:18:25;;;;;;;9.15;8.23;;;;;;;9.79;nan;99258.25;4982322;28;20238;-78
2022/05/03 02:21:15;;;;;;;9.00;7.95;;;;;;;9.78;nan;99258.38;4972462;28;20957;-79
2022/05/03 02:23:41;;;;;;;8.45;7.65;;;;;;;9.72;nan;99263.09;4987979;23;20277;-72
2022/05/03 02:26:29;;;;;;;11.43;8.20;;;;;;;9.69;nan;99262.44;4999823;28;20261;-71
2022/05/03 02:29:25;;;;;;;8.63;7.93;;;;;;;9.65;nan;99259.16;5003185;28;20751;-72
2022/05/03 02:32:08;;;;;;;10.35;8.73;;;;;;;9.60;nan;99255.16;4987244;28;20218;-71
2022/05/03 02:34:33;;;;;;;9.60;8.60;;;;;;;9.53;nan;99258.19;5006161;28;20276;-72
2022/05/03 02:37:20;;;;;;;10.80;8.80;;;;;;;9.48;nan;99255.03;5006629;28;20293;-71
2022/05/03 02:40:07;;;;;;;9.93;8.93;;;;;;;9.46;nan;99254.28;4975216;28;20230;-72
2022/05/03 02:42:33;;;;;;;11.15;8.68;;;;;;;9.44;nan;99261.41;5006248;28;20717;-71
2022/05/03 02:45:00;;;;;;;10.02;8.75;;;;;;;9.44;nan;99263.19;5005885;28;20321;-71
2022/05/03 02:47:30;;;;;;;9.00;8.10;;;;;;;9.45;nan;99264.84;5006886;28;20218;-72
2022/05/03 02:50:14;;;;;;;9.63;8.32;;;;;;;9.44;nan;99264.03;5006452;28;20218;-71
2022/05/03 02:53:08;;;;;;;10.30;8.40;;;;;;;9.44;nan;99256.16;4976103;28;20322;-72
2022/05/03 02:56:01;;;;;;;10.27;8.43;;;;;;;9.44;nan;99261.41;4966241;28;20838;-72
2022/05/03 02:58:48;;;;;;;9.35;8.15;;;;;;;9.39;nan;99265.25;4965077;28;20306;-72
2022/05/03 03:01:47;;;;;;;11.00;8.70;;;;;;;9.36;nan;99266.28;4966340;28;20740;-72
2022/05/03 03:04:43;;;;;;;9.82;8.68;;;;;;;9.35;nan;99261.16;4966041;28;20224;-72
2022/05/03 03:07:16;;;;;;;11.40;8.10;;;;;;;9.35;nan;99267.25;4967560;28;20220;-72
2022/05/03 03:10:06;;;;;;;9.40;8.50;;;;;;;9.38;nan;99261.81;4967437;28;20219;-72
2022/05/03 03:12:43;;;;;;;8.10;7.30;;;;;;;9.38;nan;99256.56;4967168;28;20204;-72
2022/05/03 03:15:10;;;;;;;8.27;7.57;;;;;;;9.40;nan;99254.69;4966161;28;20239;-72
2022/05/03 03:17:40;;;;;;;7.63;6.38;;;;;;;9.40;nan;99257.31;4965914;28;20212;-72
2022/05/03 03:20:08;;;;;;;9.75;6.57;;;;;;;9.31;nan;99263.13;4967327;28;20827;-72
2022/05/03 03:22:39;;;;;;;9.57;7.20;;;;;;;9.16;nan;99258.88;4966322;28;20295;-72
2022/05/03 03:25:07;;;;;;;6.85;5.72;;;;;;;9.02;nan;99254.50;4965644;28;20267;-72
2022/05/03 03:27:34;;;;;;;8.30;6.25;;;;;;;8.93;nan;99258.53;4965745;28;20231;-72
2022/05/03 03:30:02;;;;;;;5.90;5.40;;;;;;;8.91;nan;99255.19;4966891;28;20199;-72
2022/05/03 03:32:27;;;;;;;7.30;6.10;;;;;;;8.93;nan;99257.69;4967208;28;20692;-72
2022/05/03 03:34:55;;;;;;;8.80;7.90;;;;;;;8.92;nan;99253.41;4965146;28;20220;-72
2022/05/03 03:37:29;;;;;;;6.55;6.00;;;;;;;8.92;nan;99259.47;4967497;28;20451;-72
2022/05/03 03:39:55;;;;;;;8.93;6.95;;;;;;;8.92;nan;99262.09;4966795;28;20271;-71
2022/05/03 03:42:21;;;;;;;8.60;7.90;;;;;;;8.89;nan;99264.91;4965503;28;20201;-72
2022/05/03 03:44:47;;;;;;;8.55;7.70;;;;;;;8.84;nan;99261.72;4965556;28;20290;-72
2022/05/03 03:47:14;;;;;;;9.75;7.97;;;;;;;8.83;nan;99265.25;4966436;28;20208;-72
2022/05/03 03:49:40;;;;;;;8.65;7.68;;;;;;;8.78;nan;99264.75;4966316;28;20235;-72
2022/05/03 03:52:10;;;;;;;10.07;8.30;;;;;;;8.75;nan;99263.16;4966168;28;20689;-72
2022/05/03 03:54:36;;;;;;;10.18;8.75;;;;;;;8.71;nan;99263.41;4964150;28;20318;-72
2022/05/03 03:57:04;;;;;;;10.25;8.15;;;;;;;8.68;nan;99271.47;4964675;28;20291;-72
2022/05/03 03:59:31;;;;;;;8.68;7.88;;;;;;;8.63;nan;99263.88;4966535;28;20217;-72
2022/05/03 04:01:57;;;;;;;9.55;8.65;;;;;;;8.61;nan;99266.63;4965228;28;20220;-72
2022/05/03 04:04:28;;;;;;;8.65;7.93;;;;;;;8.62;nan;99259.59;4965172;28;20252;-71
2022/05/03 04:06:54;;;;;;;8.23;7.40;;;;;;;8.65;nan;99264.63;4965892;28;20212;-72
2022/05/03 04:09:19;;;;;;;7.20;6.60;;;;;;;8.67;nan;99268.00;4965784;28;20722;-72
2022/05/03 04:11:46;;;;;;;8.07;7.23;;;;;;;8.69;nan;99267.91;4965869;28;20208;-72
2022/05/03 04:14:12;;;;;;;8.25;7.00;;;;;;;8.70;nan;99265.22;4965630;28;20242;-72
2022/05/03 04:16:38;;;;;;;7.90;7.10;;;;;;;8.71;nan;99272.13;4965590;28;20215;-72
2022/05/03 04:19:04;;;;;;;9.83;8.60;;;;;;;8.70;nan;99262.59;4966365;28;20204;-72
2022/05/03 04:21:31;;;;;;;9.43;8.40;;;;;;;8.73;nan;99269.41;4963983;28;20314;-72
2022/05/03 04:23:56;;;;;;;10.57;8.33;;;;;;;8.76;nan;99271.84;4965727;28;20251;-71
2022/05/03 04:26:21;;;;;;;7.60;6.90;;;;;;;8.77;nan;99273.50;4963846;28;20386;-71
2022/05/03 04:28:47;;;;;;;7.50;6.80;;;;;;;8.80;nan;99268.94;4966325;28;20223;-72
2022/05/03 04:31:12;;;;;;;9.07;8.17;;;;;;;8.79;nan;99276.88;4966683;28;20219;-72
2022/05/03 04:33:38;;;;;;;11.80;9.20;;;;;;;8.76;nan;99274.47;4966394;28;20232;-71
2022/05/03 04:36:04;;;;;;;8.97;7.23;;;;;;;8.74;nan;99287.63;4965297;28;20916;-72
2022/05/03 04:38:29;;;;;;;8.02;7.15;;;;;;;8.72;nan;99283.41;4970317;28;20223;-72
2022/05/03 04:40:59;;;;;;;8.37;7.60;;;;;;;8.69;nan;99281.00;4984023;28;20231;-72
2022/05/03 04:43:25;;;;;;;9.68;8.80;;;;;;;8.68;nan;99285.41;4984582;28;20224;-72
2022/05/03 04:45:51;;;;;;;8.83;7.83;;;;;;;8.68;nan;99292.41;4972917;28;20227;-72
2022/05/03 04:48:16;;;;;;;9.47;7.50;;;;;;;8.66;nan;99289.03;4981458;28;20206;-72
2022/05/03 04:50:42;;;;;;;9.20;7.53;;;;;;;8.66;nan;99300.34;4988447;28;20564;-72
2022/05/03 04:53:07;;;;;;;9.30;8.33;;;;;;;8.68;nan;99297.66;4989291;28;20564;-72
2022/05/03 04:55:37;;;;;;;9.80;7.17;;;;;;;8.75;nan;99305.03;4976997;28;20211;-72
2022/05/03 04:58:03;;;;;;;10.40;9.40;;;;;;;8.98;nan;99294.91;4983113;28;20476;-73
2022/05/03 05:00:28;;;;;;;9.10;8.30;;;;;;;9.40;nan;99303.66;4973057;28;20215;-73
2022/05/03 05:02:54;;;;;;;12.17;10.83;;;;;;;9.96;nan;99302.59;4981990;28;20869;-73
2022/05/03 05:05:19;;;;;;;11.47;10.30;;;;;;;10.53;nan;99303.22;4978376;28;20635;-73
2022/05/03 05:07:45;;;;;;;9.45;8.48;;;;;;;11.03;nan;99304.97;4975742;28;20212;-74
2022/05/03 05:10:30;;;;;;;8.00;7.20;;;;;;;11.48;nan;99307.91;4971848;28;20211;-73
2022/05/03 05:12:56;;;;;;;8.20;7.40;;;;;;;11.99;nan;99306.88;4976737;28;20216;-73
2022/05/03 05:15:25;;;;;;;8.03;7.33;;;;;;;12.43;nan;99305.31;4975347;28;20211;-73
2022/05/03 05:17:52;;;;;;;10.25;9.35;;;;;;;12.77;nan;99307.97;4983144;28;20223;-74
2022/05/03 05:20:18;;;;;;;11.90;10.60;;;;;;;13.05;nan;99302.25;4977251;28;20212;-74
2022/05/03 05:22:45;;;;;;;11.52;10.43;;;;;;;13.28;nan;99302.25;4987468;28;20207;-74
2022/05/03 05:25:10;;;;;;;10.43;9.32;;;;;;;13.48;nan;99304.13;4973723;28;20263;-73
2022/05/03 05:27:36;;;;;;;9.63;8.80;;;;;;;13.71;nan;99309.34;4987253;28;20234;-73
2022/05/03 05:30:06;;;;;;;9.77;8.73;;;;;;;13.93;nan;99303.13;4973451;28;20291;-74
2022/05/03 05:32:35;;;;;;;9.10;8.18;;;;;;;14.03;nan;99311.97;4978577;28;20990;-73
2022/05/03 05:35:04;;;;;;;9.43;8.45;;;;;;;14.14;nan;99311.09;4978398;28;20723;-74
2022/05/03 05:37:34;;;;;;;8.38;7.57;;;;;;;14.36;nan;99310.13;4985904;28;20224;-73
2022/05/03 05:39:59;;;;;;;8.63;7.80;;;;;;;14.60;nan;99307.25;4978635;28;20299;-73
2022/05/03 05:42:27;;;;;;;9.10;8.20;;;;;;;14.88;nan;99308.38;4972857;28;20204;-73
2022/05/03 05:44:53;;;;;;;10.00;9.13;;;;;;;15.14;nan;99314.03;4973639;28;20242;-73
2022/05/03 05:47:18;;;;;;;9.27;8.47;;;;;;;15.41;nan;99305.47;4970138;28;20634;-73
2022/05/03 05:49:44;;;;;;;9.07;8.17;;;;;;;15.67;nan;99307.63;4981263;28;20206;-73
2022/05/03 05:54:54;;;;;;;9.27;8.25;;;;;;;16.22;nan;99310.59;4973399;28;20223;-71
2022/05/03 05:57:20;;;;;;;10.97;9.67;;;;;;;16.50;nan;99316.84;4962972;28;20304;-71
2022/05/03 05:59:45;;;;;;;10.00;9.10;;;;;;;16.81;nan;99317.47;4963596;28;20210;-74
2022/05/03 06:02:11;;;;;;;13.77;10.00;;;;;;;17.14;nan;99314.41;4970390;28;20186;-70
2022/05/03 06:04:37;;;;;;;9.73;8.93;;;;;;;17.11;nan;99309.41;4967994;28;20281;-72
2022/05/03 06:07:02;;;;;;;10.10;9.17;;;;;;;16.92;nan;99320.94;4965923;28;20992;-75
2022/05/03 06:09:28;;;;;;;9.57;8.67;;;;;;;16.88;nan;99320.41;4974124;28;20313;-73
2022/05/03 06:11:53;;;;;;;9.23;8.10;;;;;;;17.11;nan;99317.38;4977380;28;20923;-73
2022/05/03 06:14:21;;;;;;;9.60;8.60;;;;;;;17.54;nan;99319.38;4971505;28;20196;-75
2022/05/03 06:16:52;;;;;;;9.03;8.17;;;;;;;18.02;nan;99318.22;4966278;28;20272;-71
2022/05/03 06:19:17;;;;;;;9.80;8.77;;;;;;;18.26;nan;99319.44;4970596;28;20822;-73
2022/05/03 06:21:43;;;;;;;10.73;9.73;;;;;;;18.24;nan;99318.75;4976034;28;20817;-74
2022/05/03 06:24:10;;;;;;;10.77;9.67;;;;;;;18.39;nan;99319.88;4963929;28;20918;-73
2022/05/03 06:26:35;;;;;;;10.40;8.80;;;;;;;18.53;nan;99313.16;4964222;28;20212;-73
2022/05/03 06:29:02;;;;;;;9.20;8.30;;;;;;;18.47;nan;99311.09;4978814;28;20439;-72
2022/05/03 06:31:28;;;;;;;10.43;9.43;;;;;;;18.75;nan;99317.97;4963812;28;20179;-71
2022/05/03 06:33:55;;;;;;;9.10;8.20;;;;;;;19.10;nan;99304.69;4974110;28;20435;-75
2022/05/03 06:36:20;;;;;;;9.70;8.80;;;;;;;19.46;nan;99305.31;4976289;28;20490;-73
2022/05/03 06:38:46;;;;;;;9.43;8.33;;;;;;;19.68;nan;99309.22;4976256;28;20731;-75
2022/05/03 06:41:12;;;;;;;9.60;8.70;;;;;;;19.85;nan;99308.28;4962516;28;20188;-72
2022/05/03 06:43:37;;;;;;;10.60;9.20;;;;;;;20.05;nan;99305.28;4964465;28;20275;-72
2022/05/03 06:46:03;;;;;;;8.50;7.67;;;;;;;20.19;nan;99309.13;4973522;28;20468;-74
2022/05/03 06:48:28;;;;;;;9.60;7.67;;;;;;;20.06;nan;99307.78;4974103;28;20197;-73
2022/05/03 06:50:54;;;;;;;8.50;7.80;;;;;;;19.91;nan;99309.44;4975426;28;20187;-73
2022/05/03 06:53:19;;;;;;;9.80;8.83;;;;;;;19.79;nan;99314.22;4970039;28;20740;-72
2022/05/03 06:55:45;;;;;;;10.67;8.40;;;;;;;19.69;nan;99312.75;4975457;28;20231;-74
2022/05/03 06:58:10;;;;;;;8.77;8.07;;;;;;;19.50;nan;99327.97;4979464;28;20187;-75
2022/05/03 07:00:35;;;;;;;8.67;7.87;;;;;;;19.32;nan;99319.25;4963037;28;20236;-72
2022/05/03 07:03:01;;;;;;;9.93;9.03;;;;;;;19.37;nan;99319.59;4975902;28;20742;-75
2022/05/03 07:05:27;;;;;;;9.30;8.40;;;;;;;19.43;nan;99318.94;4963635;28;20212;-72
2022/05/03 07:07:52;;;;;;;9.20;8.40;;;;;;;19.21;nan;99318.53;4963215;28;20397;-73
2022/05/03 07:10:18;;;;;;;9.17;8.30;;;;;;;18.90;nan;99322.69;4965898;28;20267;-75
2022/05/03 07:12:44;;;;;;;9.47;8.57;;;;;;;18.61;nan;99334.50;4961870;28;20211;-73
2022/05/03 07:15:10;;;;;;;10.17;9.30;;;;;;;18.29;nan;99330.59;4961483;28;20204;-69
2022/05/03 07:23:04;;;;;;;10.90;8.67;;;;;;;17.64;nan;99335.25;4973964;28;20429;-72
2022/05/03 07:25:30;;;;;;;9.20;8.30;;;;;;;17.74;nan;99327.22;4968133;28;20480;-70
2022/05/03 07:27:55;;;;;;;9.13;7.87;;;;;;;18.16;nan;99321.34;4968349;28;20944;-73
2022/05/03 07:30:21;;;;;;;10.27;9.23;;;;;;;18.56;nan;99331.47;4979895;28;20483;-70
2022/05/03 07:32:47;;;;;;;9.57;8.60;;;;;;;18.62;nan;99327.34;4971477;28;20220;-74
2022/05/03 07:35:12;;;;;;;10.60;9.60;;;;;;;18.89;nan;99332.53;4963856;28;20475;-72
2022/05/03 07:37:39;;;;;;;14.83;8.77;;;;;;;19.30;nan;99329.22;4963981;28;20192;-72
2022/05/03 07:40:06;;;;;;;9.17;8.27;;;;;;;19.63;nan;99317.69;4964107;28;20181;-74
2022/05/03 07:42:32;;;;;;;9.73;8.70;;;;;;;20.02;nan;99317.09;4977751;28;20450;-74
2022/05/03 07:44:58;;;;;;;11.60;10.40;;;;;;;20.42;nan;99318.13;4971809;28;20468;-74
2022/05/03 07:47:23;;;;;;;10.60;9.50;;;;;;;20.54;nan;99319.44;4964152;28;20275;-73
2022/05/03 07:49:49;;;;;;;11.17;10.07;;;;;;;20.39;nan;99323.78;4974225;28;20199;-71
2022/05/03 07:52:14;;;;;;;11.60;9.10;;;;;;;20.51;nan;99321.59;4971290;28;20340;-75
2022/05/03 07:54:41;;;;;;;12.60;10.10;;;;;;;21.03;nan;99320.34;4964616;28;20233;-74
2022/05/03 07:57:07;;;;;;;12.23;11.03;;;;;;;21.23;nan;99324.28;4973432;28;20297;-72
2022/05/03 07:59:33;;;;;;;12.50;11.27;;;;;;;21.33;nan;99330.28;4972546;28;20396;-73
2022/05/03 08:01:59;;;;;;;11.77;10.57;;;;;;;21.48;nan;99326.88;4964207;28;20416;-71
2022/05/03 08:04:25;;;;;;;10.83;9.73;;;;;;;21.90;nan;99325.63;4970543;28;20191;-73
2022/05/03 08:06:50;;;;;;;10.80;9.47;;;;;;;21.94;nan;99325.09;4963740;28;20453;-73
2022/05/03 08:09:15;;;;;;;9.47;8.53;;;;;;;22.05;nan;99322.00;4964638;28;20615;-71
2022/05/03 08:11:41;;;;;;;11.17;10.00;;;;;;;22.04;nan;99324.88;4969236;28;20281;-73
2022/05/03 08:14:07;;;;;;;10.60;9.70;;;;;;;22.29;nan;99318.34;4965197;28;20210;-73
2022/05/03 08:16:32;;;;;;;12.53;11.33;;;;;;;22.14;nan;99328.13;4966282;28;20306;-75
2022/05/03 08:18:58;;;;;;;11.33;10.33;;;;;;;22.18;nan;99329.47;4963733;28;20222;-75
2022/05/03 08:21:24;;;;;;;10.13;9.13;;;;;;;22.03;nan;99328.53;4967009;28;20193;-71
2022/05/03 08:26:18;;;;;;;11.70;9.30;;;;;;;22.46;nan;99328.91;4916021;29;20763;-75
2022/05/03 08:28:45;;;;;;;12.77;11.33;;;;;;;22.57;nan;99332.97;4921188;29;20458;-75
2022/05/03 08:31:11;;;;;;;11.10;10.10;;;;;;;22.77;nan;99322.59;4927131;29;20551;-74
2022/05/03 08:33:36;;;;;;;11.03;10.07;;;;;;;22.45;nan;99330.75;4936893;29;20956;-74
2022/05/03 08:36:03;;;;;;;11.70;10.60;;;;;;;22.22;nan;99325.41;4933268;28;20314;-74
2022/05/03 08:44:00;;;;;;;11.73;10.53;;;;;;;21.94;nan;99319.75;4929776;29;20477;-74
2022/05/03 08:46:29;;;;;;;11.53;10.20;;;;;;;21.98;nan;99321.06;4934223;29;21023;-74
2022/05/03 08:49:03;;;;;;;12.13;10.87;;;;;;;22.20;nan;99326.63;4930053;29;20459;-74
2022/05/03 08:51:31;;;;;;;11.43;10.23;;;;;;;22.01;nan;99319.88;4929866;29;20449;-74
2022/05/03 08:53:58;;;;;;;12.90;11.27;;;;;;;21.99;nan;99325.41;4930267;29;20456;-74
2022/05/03 08:56:24;;;;;;;11.63;10.43;;;;;;;21.95;nan;99320.59;4927394;29;21426;-74
2022/05/03 08:58:51;;;;;;;11.30;10.10;;;;;;;21.94;nan;99321.59;4915490;29;20484;-74
2022/05/03 09:01:18;;;;;;;13.87;12.40;;;;;;;21.94;nan;99319.75;4931122;29;20217;-74
2022/05/03 09:03:44;;;;;;;12.87;11.73;;;;;;;22.01;nan;99320.72;4930883;28;20451;-75
2022/05/03 09:06:10;;;;;;;11.40;9.03;;;;;;;22.01;nan;99319.88;4927243;29;20864;-75
2022/05/03 09:08:36;;;;;;;11.40;10.40;;;;;;;22.07;nan;99313.81;4927977;29;20423;-74
2022/05/03 09:11:15;;;;;;;11.80;10.70;;;;;;;22.16;nan;99311.91;4932906;29;20514;-74
2022/05/03 09:13:42;;;;;;;11.50;10.43;;;;;;;22.27;nan;99309.66;4929502;28;20427;-75
2022/05/03 09:16:12;;;;;;;13.73;11.40;;;;;;;22.22;nan;99306.69;4931031;29;20415;-74
2022/05/03 09:18:37;;;;;;;11.97;10.80;;;;;;;22.22;nan;99309.34;4926500;29;20444;-75
2022/05/03 09:24:01;;;;;;;13.07;10.07;;;;;;;22.50;nan;99304.28;4934922;29;20196;-74
2022/05/03 09:26:31;;;;;;;11.90;9.90;;;;;;;22.57;nan;99303.53;4935397;29;20472;-74
2022/05/03 09:29:10;;;;;;;12.03;11.03;;;;;;;22.67;nan;99301.44;4919895;29;20834;-74
2022/05/03 09:31:43;;;;;;;11.07;10.00;;;;;;;22.54;nan;99302.06;4930272;29;20499;-75
2022/05/03 09:34:25;;;;;;;11.97;10.87;;;;;;;22.54;nan;99308.25;4931406;29;20464;-74
2022/05/03 09:37:09;;;;;;;10.90;10.00;;;;;;;22.53;nan;99301.22;4935050;29;20434;-74
2022/05/03 09:39:41;;;;;;;12.30;10.10;;;;;;;22.67;nan;99301.44;4938024;29;20443;-74
2022/05/03 09:42:20;;;;;;;10.63;9.73;;;;;;;22.73;nan;99308.72;4939119;29;20433;-74
2022/05/03 09:44:54;;;;;;;12.00;10.80;;;;;;;22.67;nan;99294.22;4931528;29;20484;-74
2022/05/03 09:47:22;;;;;;;13.60;12.20;;;;;;;22.74;nan;99300.53;4937076;29;20447;-74
2022/05/03 09:49:48;;;;;;;13.67;12.40;;;;;;;22.66;nan;99292.59;4910033;29;20445;-74
2022/05/03 09:52:29;;;;;;;13.40;11.70;;;;;;;22.79;nan;99297.31;4934412;29;20449;-74
2022/05/03 09:54:59;;;;;;;12.67;11.43;;;;;;;22.93;nan;99292.97;4918514;29;20597;-74
2022/05/03 09:57:29;;;;;;;14.27;12.07;;;;;;;22.82;nan;99291.56;4939151;29;20467;-74
2022/05/03 09:59:55;;;;;;;12.00;10.90;;;;;;;22.58;nan;99287.31;4930100;29;20453;-74
2022/05/03 10:02:23;;;;;;;12.67;11.37;;;;;;;22.54;nan;99291.34;4933858;29;20963;-75
2022/05/03 10:04:51;;;;;;;11.53;10.53;;;;;;;22.80;nan;99285.56;4934441;29;20456;-74
2022/05/03 10:07:17;;;;;;;10.40;9.50;;;;;;;22.94;nan;99282.03;4936544;29;20436;-74
2022/05/03 10:09:45;;;;;;;11.00;9.90;;;;;;;23.04;nan;99276.44;4917201;29;20426;-74
2022/05/03 10:12:11;;;;;;;11.77;10.37;;;;;;;23.12;nan;99275.53;4943286;29;20193;-74
2022/05/03 10:14:41;;;;;;;11.07;9.97;;;;;;;23.18;nan;99270.22;4941928;29;20460;-74
2022/05/03 10:20:40;;;;;;;10.60;9.60;;;;;;;23.10;nan;99259.63;4949028;29;20814;-74
2022/05/03 10:23:25;;;;;;;11.17;10.07;;;;;;;23.40;nan;99256.88;4939270;29;20507;-74
2022/05/03 10:25:58;;;;;;;9.27;8.40;;;;;;;23.48;nan;99248.72;4944534;28;20626;-75
2022/05/03 10:28:25;;;;;;;9.43;8.20;;;;;;;23.69;nan;99252.44;4934792;29;20437;-74
2022/05/03 10:31:05;;;;;;;7.97;7.27;;;;;;;23.91;nan;99245.25;4937037;29;20477;-74
2022/05/03 10:33:30;;;;;;;11.30;8.73;;;;;;;24.02;nan;99245.56;4932789;29;20506;-74
2022/05/03 10:35:58;;;;;;;10.03;8.90;;;;;;;24.00;nan;99239.56;4934745;28;20470;-74
2022/05/03 10:38:38;;;;;;;7.70;7.00;;;;;;;24.08;nan;99243.97;4927917;29;20186;-73
2022/05/03 10:41:05;;;;;;;7.10;6.40;;;;;;;24.12;nan;99247.09;4933418;29;20606;-74
2022/05/03 10:43:33;;;;;;;6.63;6.13;;;;;;;24.26;nan;99236.25;4932061;29;20446;-74
2022/05/03 10:46:10;;;;;;;8.20;7.50;;;;;;;24.47;nan;99234.59;4926983;29;20852;-74
2022/05/03 10:48:37;;;;;;;8.40;7.50;;;;;;;24.44;nan;99234.97;4933620;29;20447;-74
2022/05/03 10:51:04;;;;;;;8.20;7.47;;;;;;;24.42;nan;99234.31;4929600;29;20450;-74
2022/05/03 10:53:40;;;;;;;7.43;6.80;;;;;;;24.36;nan;99230.56;4935946;29;21713;-75
2022/05/03 10:56:18;;;;;;;8.57;7.70;;;;;;;24.43;nan;99228.72;4929568;29;20881;-74
2022/05/03 10:59:03;;;;;;;5.37;4.90;;;;;;;24.24;nan;99229.44;4932656;29;20549;-75
2022/05/03 11:01:29;;;;;;;5.70;4.97;;;;;;;24.24;nan;99222.19;4929910;29;20451;-75
2022/05/03 11:03:57;;;;;;;6.77;5.70;;;;;;;24.37;nan;99224.16;4930659;28;20960;-75
2022/05/03 11:06:23;;;;;;;6.77;6.17;;;;;;;24.41;nan;99213.84;4932829;29;20266;-75
2022/05/03 11:11:44;;;;;;;5.60;5.10;;;;;;;24.53;nan;99206.13;4927713;29;20478;-75
2022/05/03 11:14:16;;;;;;;5.93;4.93;;;;;;;24.56;nan;99211.91;4930534;28;20980;-74
2022/05/03 11:17:02;;;;;;;7.20;5.03;;;;;;;24.60;nan;99210.50;4931804;29;20460;-75
2022/05/03 11:19:29;;;;;;;4.83;4.50;;;;;;;24.55;nan;99204.91;4930844;29;20485;-75
2022/05/03 11:21:55;;;;;;;5.57;5.17;;;;;;;24.50;nan;99205.47;4931452;29;20891;-74
2022/05/03 11:24:29;;;;;;;5.40;4.90;;;;;;;24.46;nan;99204.19;4934548;28;20519;-75
2022/05/03 11:26:56;;;;;;;5.17;4.77;;;;;;;24.47;nan;99200.50;4933891;29;20649;-74
2022/05/03 11:29:28;;;;;;;5.83;4.30;;;;;;;24.35;nan;99195.84;4933717;29;20452;-75
2022/05/03 11:31:53;;;;;;;4.63;4.33;;;;;;;24.31;nan;99192.75;4931198;29;20984;-74
2022/05/03 11:34:19;;;;;;;4.30;4.00;;;;;;;24.21;nan;99190.38;4928478;28;20463;-74
2022/05/03 11:36:48;;;;;;;4.43;4.07;;;;;;;24.10;nan;99182.06;4931043;29;20255;-74
2022/05/03 11:39:14;;;;;;;4.13;3.83;;;;;;;24.03;nan;99180.16;4929602;29;20969;-74
2022/05/03 11:41:42;;;;;;;6.13;5.53;;;;;;;24.00;nan;99185.06;4932213;29;20443;-73
2022/05/03 11:44:07;;;;;;;5.50;5.00;;;;;;;23.91;nan;99173.66;4912259;29;20477;-74
2022/05/03 11:46:33;;;;;;;4.80;4.40;;;;;;;23.90;nan;99188.09;4930559;29;20499;-74
2022/05/03 11:49:01;;;;;;;4.47;4.07;;;;;;;23.95;nan;99174.09;4928101;29;20346;-74
2022/05/03 11:57:22;;;;;;;4.87;4.07;;;;;;;24.14;nan;99178.81;4928579;29;20953;-75
2022/05/03 11:59:50;;;;;;;5.10;4.57;;;;;;;24.15;nan;99179.63;4930778;29;20459;-75
2022/05/03 12:02:19;;;;;;;5.23;4.30;;;;;;;24.16;nan;99182.09;4929938;29;20502;-74
2022/05/03 12:05:04;;;;;;;4.67;4.27;;;;;;;24.23;nan;99190.22;4929230;29;20530;-76
2022/05/03 12:07:34;;;;;;;5.83;5.27;;;;;;;24.08;nan;99185.75;4932401;29;20463;-75
2022/05/03 12:09:59;;;;;;;7.33;6.63;;;;;;;23.90;nan;99184.56;4931280;29;20798;-75
2022/05/03 12:12:43;;;;;;;7.13;5.70;;;;;;;23.58;nan;99190.25;4931226;29;20435;-75
2022/05/03 12:15:28;;;;;;;9.17;5.27;;;;;;;23.23;nan;99191.16;4933625;29;20942;-76
2022/05/03 12:17:58;;;;;;;8.07;4.57;;;;;;;22.84;nan;99190.44;4931891;29;20436;-74
2022/05/03 12:20:23;;;;;;;4.70;3.97;;;;;;;22.53;nan;99191.50;4936713;29;20446;-75
2022/05/03 12:23:09;;;;;;;3.83;3.57;;;;;;;22.27;nan;99202.63;4933821;29;20445;-74
2022/05/03 12:25:35;;;;;;;3.00;2.80;;;;;;;21.98;nan;99203.41;4929138;28;20287;-74
2022/05/03 12:28:05;;;;;;;4.50;3.30;;;;;;;21.66;nan;99204.50;4933812;29;20444;-75
2022/05/03 12:30:31;;;;;;;5.13;4.70;;;;;;;21.40;nan;99211.03;4930080;29;20831;-74
2022/05/03 12:33:15;;;;;;;4.53;4.13;;;;;;;21.07;nan;99206.84;4933395;29;21018;-73
2022/05/03 12:35:43;;;;;;;3.30;3.00;;;;;;;20.83;nan;99213.97;4934952;29;20211;-74
2022/05/03 12:38:11;;;;;;;3.40;3.20;;;;;;;20.66;nan;99213.22;4933446;29;20441;-74
2022/05/03 12:40:53;;;;;;;4.00;3.30;;;;;;;20.52;nan;99212.06;4929037;29;20536;-73